Time;durP1;ratioP1;P1;durP2;ratioP2;P2;SDS_P1;SDS_P2;PMS_P1;PMS_P2;Temp;Humidity;BMP_temperature;BMP_pressure;BME280_temperature;BME280_humidity;BME280_pressure;Samples;Min_cycle;Max_cycle;Signal;HPM_P1;HPM_P2
2022/06/20 00:01:15;;;;;;;17.58;5.55;;;;;;;18.46;86.99;97628.81;5065280;28;20351;-69
2022/06/20 00:03:45;;;;;;;13.55;6.22;;;;;;;18.61;87.79;97638.47;5065048;28;20020;-69
2022/06/20 00:06:16;;;;;;;15.30;5.65;;;;;;;18.53;88.29;97636.31;5064473;28;20025;-69
2022/06/20 00:08:41;;;;;;;17.38;5.82;;;;;;;18.60;87.74;97631.41;5065310;28;20031;-69
2022/06/20 00:11:16;;;;;;;14.50;5.90;;;;;;;18.45;88.30;97619.13;5046375;28;20025;-69
2022/06/20 00:13:45;;;;;;;17.33;5.55;;;;;;;18.44;88.68;97630.72;5050446;28;20047;-69
2022/06/20 00:16:13;;;;;;;14.48;5.50;;;;;;;18.46;88.49;97623.47;5061598;28;20267;-69
2022/06/20 00:18:39;;;;;;;15.93;4.95;;;;;;;18.46;88.52;97615.50;5062315;28;20331;-69
2022/06/20 00:21:05;;;;;;;13.50;5.60;;;;;;;18.44;89.04;97614.72;5052953;28;20052;-69
2022/06/20 00:23:30;;;;;;;15.88;7.03;;;;;;;18.45;88.76;97611.13;5045979;28;20236;-69
2022/06/20 00:25:56;;;;;;;21.02;6.05;;;;;;;18.26;89.41;97606.09;5046156;28;20025;-69
2022/06/20 00:28:21;;;;;;;16.95;5.60;;;;;;;18.36;89.61;97611.69;5048600;28;20029;-69
2022/06/20 00:30:47;;;;;;;17.60;5.28;;;;;;;18.38;89.54;97601.84;5051344;28;20260;-69
2022/06/20 00:33:12;;;;;;;12.23;5.70;;;;;;;18.31;89.42;97600.47;5046156;28;20025;-69
2022/06/20 00:35:38;;;;;;;13.30;5.47;;;;;;;18.34;89.63;97595.81;5045867;28;20029;-69
2022/06/20 00:38:09;;;;;;;12.02;5.57;;;;;;;18.38;89.92;97605.34;5049324;28;20020;-69
2022/06/20 00:40:57;;;;;;;12.97;5.67;;;;;;;18.12;89.68;97600.00;5065498;28;20312;-69
2022/06/20 00:43:45;;;;;;;7.53;4.78;;;;;;;17.89;91.16;97604.16;5065189;28;20016;-69
2022/06/20 00:46:17;;;;;;;15.45;5.13;;;;;;;17.92;91.09;97595.13;5065038;28;20028;-69
2022/06/20 00:48:49;;;;;;;18.88;5.35;;;;;;;18.01;91.27;97597.19;5058098;28;20063;-69
2022/06/20 00:51:48;;;;;;;18.13;5.82;;;;;;;18.09;90.68;97608.19;5063537;28;20033;-69
2022/06/20 00:54:18;;;;;;;13.40;5.63;;;;;;;17.91;90.36;97604.91;5041956;28;20044;-69
2022/06/20 00:56:53;;;;;;;13.73;5.57;;;;;;;17.78;90.78;97600.50;5045456;28;20100;-69
2022/06/20 00:59:29;;;;;;;14.45;6.05;;;;;;;17.72;91.43;97603.53;5045727;28;20228;-69
2022/06/20 01:01:55;;;;;;;14.57;5.15;;;;;;;17.68;91.69;97596.72;5045615;28;20348;-68
2022/06/20 01:04:35;;;;;;;16.70;6.50;;;;;;;17.56;92.75;97592.16;5045315;28;20241;-68
2022/06/20 01:07:05;;;;;;;12.30;5.50;;;;;;;17.65;92.46;97602.22;5045328;28;20325;-68
2022/06/20 01:09:35;;;;;;;12.07;5.50;;;;;;;17.63;93.21;97593.47;5054391;28;20325;-68
2022/06/20 01:12:04;;;;;;;14.35;5.22;;;;;;;17.55;93.06;97590.44;5045228;28;20032;-68
2022/06/20 01:14:38;;;;;;;16.90;6.45;;;;;;;17.60;92.82;97601.66;5053222;28;20033;-68
2022/06/20 01:17:32;;;;;;;16.50;5.88;;;;;;;17.56;93.24;97597.50;5057511;28;20016;-68
2022/06/20 01:20:17;;;;;;;16.70;6.28;;;;;;;17.58;92.98;97590.25;5046010;28;20037;-68
2022/06/20 01:23:14;;;;;;;13.95;5.78;;;;;;;17.48;92.80;97599.75;5044887;28;20041;-68
2022/06/20 01:26:00;;;;;;;16.13;5.85;;;;;;;17.27;94.11;97608.09;5059313;28;20101;-68
2022/06/20 01:28:39;;;;;;;12.95;6.00;;;;;;;17.23;94.06;97603.06;5064229;28;20051;-68
2022/06/20 01:31:06;;;;;;;15.48;5.90;;;;;;;17.24;93.99;97608.31;5055696;28;20028;-68
2022/06/20 01:33:32;;;;;;;13.07;5.78;;;;;;;17.50;92.71;97691.00;5045887;28;20024;-68
2022/06/20 01:38:44;;;;;;;24.20;6.78;;;;;;;19.04;87.76;97727.91;5064130;28;20358;-68
2022/06/20 01:43:59;;;;;;;14.07;5.68;;;;;;;19.24;84.97;97746.13;5054683;28;20040;-68
2022/06/20 01:46:30;;;;;;;13.05;6.38;;;;;;;19.39;83.46;97694.38;5044556;28;20317;-68
2022/06/20 01:49:03;;;;;;;13.40;5.77;;;;;;;19.36;83.18;97745.28;5047155;28;20296;-68
2022/06/20 01:51:58;;;;;;;16.92;5.63;;;;;;;19.60;81.24;97743.63;5054017;28;20033;-68
2022/06/20 01:54:28;;;;;;;12.75;5.45;;;;;;;19.66;80.40;97732.53;5049199;28;20027;-68
2022/06/20 01:56:53;;;;;;;15.80;5.85;;;;;;;19.63;80.87;97764.75;5044413;28;20029;-68
2022/06/20 01:59:26;;;;;;;22.13;5.93;;;;;;;19.63;80.15;97724.72;5045469;28;20253;-68
2022/06/20 02:01:53;;;;;;;18.65;4.55;;;;;;;19.54;80.80;97753.84;5045410;28;20025;-68
2022/06/20 02:04:23;;;;;;;13.55;5.75;;;;;;;19.49;80.88;97746.16;5044255;28;20084;-68
2022/06/20 02:06:50;;;;;;;17.00;5.68;;;;;;;19.44;80.96;97742.97;5044225;28;20025;-68
2022/06/20 02:09:16;;;;;;;13.23;4.85;;;;;;;19.46;80.76;97735.72;5044190;28;20100;-68
2022/06/20 02:11:45;;;;;;;14.38;5.30;;;;;;;19.52;80.22;97735.28;5044153;28;20216;-68
2022/06/20 02:14:28;;;;;;;13.68;5.85;;;;;;;19.49;80.34;97718.63;5044076;28;20068;-68
2022/06/20 02:17:02;;;;;;;12.73;4.50;;;;;;;19.41;80.63;97727.16;5044096;28;20025;-68
2022/06/20 02:19:32;;;;;;;13.73;5.18;;;;;;;19.37;80.48;97725.69;5052401;28;20029;-68
2022/06/20 02:22:01;;;;;;;12.90;5.07;;;;;;;19.38;80.54;97727.38;5044064;28;20029;-68
2022/06/20 02:24:31;;;;;;;13.05;5.00;;;;;;;19.33;80.52;97734.81;5057879;28;20049;-68
2022/06/20 02:27:02;;;;;;;19.25;6.53;;;;;;;19.33;80.79;97750.84;5044471;28;20032;-68
2022/06/20 02:29:29;;;;;;;14.57;4.78;;;;;;;19.25;80.88;97745.16;5043957;28;20025;-68
2022/06/20 02:32:03;;;;;;;9.88;4.15;;;;;;;19.23;80.85;97744.38;5045122;28;20100;-68
2022/06/20 02:34:30;;;;;;;11.32;4.15;;;;;;;19.20;81.01;97744.59;5063188;28;20078;-68
2022/06/20 02:37:01;;;;;;;10.93;3.92;;;;;;;19.16;80.94;97738.63;5062989;28;20090;-68
2022/06/20 02:39:28;;;;;;;16.83;5.23;;;;;;;19.16;80.90;97727.09;5043880;28;20052;-68
2022/06/20 02:42:01;;;;;;;14.57;4.25;;;;;;;19.15;80.96;97725.41;5043832;28;20075;-68
2022/06/20 02:44:28;;;;;;;11.20;3.88;;;;;;;19.07;81.01;97725.03;5059963;28;20076;-68
2022/06/20 02:46:55;;;;;;;13.40;4.63;;;;;;;19.01;81.24;97728.13;5063427;28;20045;-68
2022/06/20 02:49:26;;;;;;;19.05;4.68;;;;;;;19.04;80.62;97727.91;5047392;28;20112;-68
2022/06/20 02:51:54;;;;;;;13.63;4.07;;;;;;;18.98;80.89;97728.31;5061548;28;20025;-68
2022/06/20 02:54:24;;;;;;;15.15;4.93;;;;;;;18.92;80.82;97736.75;5047461;28;20018;-68
2022/06/20 02:56:54;;;;;;;10.93;3.75;;;;;;;18.92;80.77;97734.09;5043710;28;20029;-68
2022/06/20 02:59:46;;;;;;;13.35;4.05;;;;;;;18.92;80.61;97726.09;5043693;28;20056;-68
2022/06/20 03:02:13;;;;;;;13.45;4.28;;;;;;;18.87;80.99;97728.19;5043242;28;20071;-68
2022/06/20 03:04:42;;;;;;;10.30;4.32;;;;;;;18.79;81.07;97738.50;5043630;28;20021;-68
2022/06/20 03:07:23;;;;;;;9.55;3.80;;;;;;;18.74;81.38;97756.63;5043656;28;20028;-68
2022/06/20 03:09:57;;;;;;;15.90;4.65;;;;;;;18.69;81.96;97753.41;5057217;28;20053;-68
2022/06/20 03:12:23;;;;;;;12.73;4.32;;;;;;;18.68;81.69;97751.69;5062956;28;20342;-68
2022/06/20 03:14:58;;;;;;;10.30;3.88;;;;;;;18.77;81.64;97751.09;5046324;28;20053;-68
2022/06/20 03:17:24;;;;;;;12.15;4.43;;;;;;;18.69;81.69;97745.41;5044699;28;20021;-68
2022/06/20 03:19:59;;;;;;;14.48;3.95;;;;;;;18.65;81.60;97743.91;5051877;28;20305;-68
2022/06/20 03:22:33;;;;;;;15.07;3.67;;;;;;;18.62;81.73;97741.44;5043357;28;20025;-68
2022/06/20 03:24:59;;;;;;;10.85;3.70;;;;;;;18.59;82.24;97736.31;5043830;28;20028;-68
2022/06/20 03:27:29;;;;;;;10.25;3.70;;;;;;;18.53;82.34;97736.69;5043360;28;20025;-68
2022/06/20 03:29:59;;;;;;;11.80;3.58;;;;;;;18.49;82.75;97735.19;5054664;28;20020;-68
2022/06/20 03:32:25;;;;;;;8.93;4.47;;;;;;;18.46;83.60;97741.59;5044987;28;20328;-68
2022/06/20 03:34:52;;;;;;;16.40;4.05;;;;;;;18.38;84.08;97743.03;5053556;28;20061;-68
2022/06/20 03:37:18;;;;;;;23.58;5.35;;;;;;;18.38;83.90;97753.72;5062736;28;20370;-68
2022/06/20 03:39:47;;;;;;;13.85;4.00;;;;;;;18.37;84.65;97751.97;5062757;28;20224;-68
2022/06/20 03:42:13;;;;;;;14.93;4.03;;;;;;;18.34;84.55;97757.47;5063196;28;20046;-68
2022/06/20 03:44:52;;;;;;;11.95;3.53;;;;;;;18.30;85.11;97763.94;5061535;28;20032;-68
2022/06/20 03:47:23;;;;;;;11.68;4.13;;;;;;;18.25;84.88;97774.03;5062051;28;20028;-68
2022/06/20 03:50:03;;;;;;;13.75;4.40;;;;;;;18.32;84.46;97780.69;5062523;28;20321;-68
2022/06/20 03:52:57;;;;;;;11.25;3.65;;;;;;;18.39;84.30;97792.72;5061305;28;20295;-68
2022/06/20 03:55:43;;;;;;;13.07;4.20;;;;;;;18.44;85.22;97795.91;5065233;28;20251;-68
2022/06/20 03:58:21;;;;;;;14.80;4.38;;;;;;;18.51;83.66;97802.59;5064791;28;20100;-68
2022/06/20 04:00:47;;;;;;;7.78;3.30;;;;;;;18.46;84.99;97802.00;5052357;28;20029;-69
2022/06/20 04:03:18;;;;;;;7.07;3.78;;;;;;;18.40;85.69;97805.06;5046514;28;20089;-69
2022/06/20 04:05:59;;;;;;;14.55;4.30;;;;;;;18.39;85.83;97803.38;5046525;28;20231;-69
2022/06/20 04:11:20;;;;;;;12.88;3.60;;;;;;;18.43;86.07;97816.41;5045580;28;20236;-69
2022/06/20 04:14:18;;;;;;;12.90;4.45;;;;;;;18.45;85.49;97814.47;5046293;28;20382;-69
2022/06/20 04:16:49;;;;;;;7.50;3.53;;;;;;;18.49;85.36;97815.13;5046339;28;20217;-69
2022/06/20 04:19:22;;;;;;;12.73;3.67;;;;;;;18.53;85.06;97813.97;5046277;28;20024;-69
2022/06/20 04:22:11;;;;;;;7.90;3.53;;;;;;;18.56;84.73;97816.47;5046246;28;20071;-69
2022/06/20 04:24:54;;;;;;;11.30;3.92;;;;;;;18.61;84.81;97815.19;5045913;28;20092;-69
2022/06/20 04:27:31;;;;;;;10.50;3.42;;;;;;;18.59;85.82;97822.47;5046016;28;20045;-69
2022/06/20 04:30:13;;;;;;;14.40;4.03;;;;;;;18.49;86.93;97826.66;5046057;28;20044;-69
2022/06/20 04:32:51;;;;;;;12.00;4.10;;;;;;;18.50;87.27;97847.03;5046038;28;20083;-69
2022/06/20 04:35:22;;;;;;;18.75;4.15;;;;;;;18.61;86.29;97849.84;5045861;28;20320;-69
2022/06/20 04:37:55;;;;;;;7.82;3.60;;;;;;;18.68;86.23;97847.66;5045946;28;20108;-69
2022/06/20 04:40:39;;;;;;;12.52;4.00;;;;;;;18.72;86.18;97841.16;5045792;28;20132;-69
2022/06/20 04:43:33;;;;;;;13.90;4.10;;;;;;;18.78;86.60;97843.44;5045826;28;20024;-69
2022/06/20 04:46:05;;;;;;;10.80;4.25;;;;;;;18.95;85.17;97852.06;5046004;28;20052;-69
2022/06/20 04:48:31;;;;;;;7.75;3.92;;;;;;;19.11;84.06;97862.59;5045736;28;20059;-69
2022/06/20 04:51:02;;;;;;;10.35;4.30;;;;;;;19.21;83.48;97863.72;5045927;28;20135;-69
2022/06/20 04:53:32;;;;;;;11.35;4.13;;;;;;;19.15;83.23;97869.44;5045474;28;20190;-69
2022/06/20 04:56:00;;;;;;;12.75;4.45;;;;;;;19.19;82.01;97873.63;5045776;28;20056;-69
2022/06/20 04:58:35;;;;;;;14.52;4.35;;;;;;;19.18;81.64;97885.25;5045369;28;20321;-69
2022/06/20 05:01:02;;;;;;;15.32;4.93;;;;;;;19.19;81.56;97902.97;5045578;28;20028;-69
2022/06/20 05:03:31;;;;;;;12.45;4.32;;;;;;;19.16;82.05;97905.81;5045416;28;20321;-69
2022/06/20 05:06:00;;;;;;;17.23;3.95;;;;;;;19.05;82.95;97893.19;5045351;28;20368;-69
2022/06/20 05:08:39;;;;;;;12.73;3.95;;;;;;;19.11;82.41;97889.28;5045591;28;20245;-69
2022/06/20 05:11:10;;;;;;;14.02;4.20;;;;;;;19.34;81.81;97923.34;5045254;28;20063;-69
2022/06/20 05:13:44;;;;;;;12.30;4.07;;;;;;;19.24;83.19;97853.69;5045213;28;20104;-69
2022/06/20 05:16:16;;;;;;;9.57;3.65;;;;;;;19.27;81.98;97839.34;5045220;28;20036;-69
2022/06/20 05:18:45;;;;;;;8.98;3.55;;;;;;;19.40;81.34;97880.25;5045379;28;20091;-69
2022/06/20 05:21:19;;;;;;;12.65;3.60;;;;;;;19.84;79.66;97912.81;5045095;28;20224;-69
2022/06/20 05:23:49;;;;;;;13.95;3.47;;;;;;;20.02;78.67;97970.34;5044949;28;20029;-69
2022/06/20 05:26:31;;;;;;;15.18;4.22;;;;;;;19.73;80.15;97981.25;5045005;28;20096;-69
2022/06/20 05:29:01;;;;;;;11.25;3.78;;;;;;;19.86;80.03;97953.63;5044818;28;20025;-69
2022/06/20 05:31:34;;;;;;;12.68;4.80;;;;;;;20.05;77.85;97943.41;5045149;28;20053;-69
2022/06/20 05:34:09;;;;;;;13.45;3.53;;;;;;;20.43;77.86;97943.47;5044731;28;20317;-69
2022/06/20 05:37:10;;;;;;;12.38;4.28;;;;;;;20.34;77.77;97949.47;5044840;28;20032;-69
2022/06/20 05:39:42;;;;;;;12.50;3.67;;;;;;;20.11;78.40;97943.00;5044525;28;20056;-69
2022/06/20 05:42:11;;;;;;;8.50;3.65;;;;;;;20.37;78.16;97943.91;5044721;28;20021;-69
2022/06/20 05:44:37;;;;;;;9.20;3.92;;;;;;;20.55;77.17;97943.50;5044602;28;20088;-69
2022/06/20 05:47:13;;;;;;;7.57;3.47;;;;;;;20.52;76.23;97933.00;5044645;28;20378;-69
2022/06/20 05:49:45;;;;;;;12.05;4.07;;;;;;;20.49;76.68;97917.19;5044598;28;20031;-69
2022/06/20 05:52:16;;;;;;;10.70;3.88;;;;;;;20.58;76.62;97927.25;5044569;28;20053;-69
2022/06/20 05:54:48;;;;;;;12.98;3.67;;;;;;;20.55;75.81;97932.78;5044460;28;20320;-69
2022/06/20 05:57:21;;;;;;;11.30;3.50;;;;;;;20.68;76.74;97933.63;5044421;28;20079;-70
2022/06/20 05:59:50;;;;;;;15.45;4.28;;;;;;;20.64;75.88;97926.81;5044393;28;20387;-70
2022/06/20 06:02:29;;;;;;;16.10;4.05;;;;;;;20.60;76.80;97924.47;5044329;28;20371;-70
2022/06/20 06:05:12;;;;;;;8.18;3.00;;;;;;;20.68;76.70;97930.09;5044306;28;20284;-70
2022/06/20 06:07:51;;;;;;;13.18;4.38;;;;;;;21.49;75.44;97947.38;5044282;28;20029;-70
2022/06/20 06:10:51;;;;;;;12.75;3.80;;;;;;;21.83;72.79;97962.69;5043777;28;20072;-70
2022/06/20 06:13:33;;;;;;;11.32;3.10;;;;;;;22.00;71.64;97943.50;5044116;28;20045;-70
2022/06/20 06:19:37;;;;;;;6.25;2.95;;;;;;;21.03;74.58;97955.22;5044084;28;20031;-70
2022/06/20 06:22:37;;;;;;;21.38;3.75;;;;;;;20.94;76.77;97955.88;5044348;28;20030;-70
2022/06/20 06:25:29;;;;;;;6.43;3.00;;;;;;;20.85;76.63;97935.13;5044037;28;20100;-70
2022/06/20 06:28:00;;;;;;;7.78;3.53;;;;;;;20.60;76.48;97927.97;5043937;28;20072;-70
2022/06/20 06:30:39;;;;;;;7.80;3.30;;;;;;;20.70;76.36;97958.47;5043983;28;20217;-70
2022/06/20 06:33:22;;;;;;;10.93;3.72;;;;;;;20.70;76.51;97969.16;5044054;28;20309;-70
2022/06/20 06:36:17;;;;;;;7.68;3.05;;;;;;;20.89;76.58;97976.75;5043958;28;20061;-70
2022/06/20 06:38:49;;;;;;;9.80;3.55;;;;;;;20.96;77.80;97986.94;5043389;28;20135;-70
2022/06/20 06:41:38;;;;;;;10.43;3.22;;;;;;;20.89;78.40;97974.06;5043856;28;20028;-70
2022/06/20 06:44:16;;;;;;;11.27;3.28;;;;;;;20.59;77.95;97971.72;5043835;28;20021;-70
2022/06/20 06:46:46;;;;;;;9.55;3.55;;;;;;;20.34;79.38;97985.06;5043822;28;20029;-70
2022/06/20 06:49:17;;;;;;;12.32;3.20;;;;;;;20.21;80.41;97992.22;5043726;28;20033;-70
2022/06/20 06:51:52;;;;;;;10.35;3.42;;;;;;;20.16;80.49;97999.69;5043790;28;20052;-70
2022/06/20 06:54:24;;;;;;;9.30;3.53;;;;;;;20.18;81.29;98003.09;5043687;28;20025;-70
2022/06/20 06:57:08;;;;;;;;;;;;;;;19.97;82.13;98011.69;5044171;28;20028;-70
2022/06/20 06:59:40;;;;;;;9.85;4.03;;;;;;;19.90;86.86;98008.53;5043841;28;20195;-70
2022/06/20 07:02:12;;;;;;;;;;;;;;;19.87;87.43;98006.06;5044193;28;20025;-70
2022/06/20 07:04:50;;;;;;;10.68;3.80;;;;;;;19.77;88.42;98001.47;5043680;28;20093;-70
2022/06/20 07:07:25;;;;;;;7.43;3.35;;;;;;;19.81;88.20;97998.50;5043675;28;20032;-70
2022/06/20 07:09:52;;;;;;;6.32;3.38;;;;;;;19.79;87.31;97989.72;5043635;28;20025;-70
2022/06/20 07:12:44;;;;;;;6.75;3.33;;;;;;;19.77;88.47;97964.91;5043590;28;20021;-70
2022/06/20 07:15:12;;;;;;;12.57;3.97;;;;;;;19.90;87.01;97975.66;5043466;28;20045;-70
2022/06/20 07:17:45;;;;;;;9.55;3.50;;;;;;;20.16;86.42;97981.00;5043615;28;20092;-70
2022/06/20 07:20:11;;;;;;;10.63;3.53;;;;;;;20.55;85.72;97980.94;5043520;28;20316;-70
2022/06/20 07:22:40;;;;;;;12.77;4.28;;;;;;;20.70;83.13;97985.22;5044219;28;20037;-70
2022/06/20 07:25:12;;;;;;;9.07;3.47;;;;;;;21.13;84.55;97988.38;5047317;28;20041;-70
2022/06/20 07:27:43;;;;;;;11.82;3.53;;;;;;;21.42;80.05;97984.44;5047237;28;20021;-70
2022/06/20 07:30:20;;;;;;;16.48;4.00;;;;;;;21.59;80.06;97980.53;5047467;28;20022;-70
2022/06/20 07:33:14;;;;;;;9.55;3.40;;;;;;;21.82;77.74;97982.41;5047145;28;20025;-70
2022/06/20 07:35:54;;;;;;;9.88;3.75;;;;;;;21.97;78.32;97986.63;5045559;28;20046;-70
2022/06/20 07:38:31;;;;;;;14.20;4.47;;;;;;;22.23;79.83;97999.75;5047015;28;20021;-70
2022/06/20 07:41:13;;;;;;;7.72;3.40;;;;;;;22.21;80.96;98027.66;5046985;28;20043;-70
2022/06/20 07:43:47;;;;;;;8.73;3.22;;;;;;;22.51;78.91;98017.31;5046993;28;20021;-70
2022/06/20 07:46:26;;;;;;;8.88;3.20;;;;;;;22.73;76.88;98014.69;5047133;28;20194;-70
2022/06/20 07:48:57;;;;;;;11.10;3.63;;;;;;;23.53;73.85;98011.78;5046825;28;20021;-70
2022/06/20 07:51:22;;;;;;;6.60;2.87;;;;;;;24.63;69.49;98008.72;5046783;28;20017;-70
2022/06/20 07:54:27;;;;;;;7.25;2.90;;;;;;;24.88;68.46;98000.28;5046673;28;20045;-70
2022/06/20 07:57:08;;;;;;;8.35;2.88;;;;;;;24.88;66.21;97994.91;5046055;28;20045;-70
2022/06/20 07:59:41;;;;;;;9.15;3.10;;;;;;;24.33;67.21;98003.25;5046625;28;20048;-70
2022/06/20 08:02:20;;;;;;;11.48;3.13;;;;;;;23.70;68.93;97992.47;5046668;28;20067;-70
2022/06/20 08:04:49;;;;;;;12.45;3.10;;;;;;;24.66;68.07;98000.44;5046571;28;20064;-70
2022/06/20 08:07:40;;;;;;;7.53;2.55;;;;;;;26.54;62.73;98022.91;5046519;28;20029;-70
2022/06/20 08:10:31;;;;;;;6.32;2.67;;;;;;;26.85;59.27;98022.59;5046709;28;20268;-70
2022/06/20 08:13:28;;;;;;;10.30;2.78;;;;;;;27.06;58.86;98030.50;5046400;28;20221;-70
2022/06/20 08:16:02;;;;;;;10.32;3.10;;;;;;;28.56;57.41;98052.53;5046483;28;20039;-70
2022/06/20 08:18:29;;;;;;;7.40;2.55;;;;;;;29.27;55.38;98054.16;5046316;28;20063;-70
2022/06/20 08:21:10;;;;;;;7.10;3.08;;;;;;;28.91;54.29;98060.63;5046505;28;20044;-70
2022/06/20 08:23:58;;;;;;;11.23;2.53;;;;;;;29.37;54.07;98067.59;5046127;28;20276;-70
2022/06/20 08:26:42;;;;;;;8.07;2.80;;;;;;;29.55;51.99;98068.41;5046169;28;20252;-70
2022/06/20 08:29:15;;;;;;;6.53;2.78;;;;;;;29.85;50.99;98059.75;5046152;28;20275;-70
2022/06/20 08:31:48;;;;;;;8.77;3.13;;;;;;;29.99;52.17;98075.44;5046113;28;20028;-70
2022/06/20 08:34:22;;;;;;;8.63;3.20;;;;;;;30.49;52.20;98081.69;5045639;28;20093;-70
2022/06/20 08:36:50;;;;;;;6.20;2.88;;;;;;;30.53;49.44;98080.38;5045980;28;20021;-70
2022/06/20 08:39:15;;;;;;;12.30;3.88;;;;;;;31.01;48.78;98077.72;5045866;28;20025;-70
2022/06/20 08:42:18;;;;;;;10.13;3.28;;;;;;;29.68;51.52;98068.84;5045855;28;20060;-70
2022/06/20 08:45:06;;;;;;;8.75;3.30;;;;;;;28.79;53.38;98068.16;5045507;28;20100;-70
2022/06/20 08:47:59;;;;;;;10.32;3.05;;;;;;;28.84;53.21;98079.38;5045754;28;20031;-70
2022/06/20 08:51:02;;;;;;;14.23;3.63;;;;;;;28.70;53.45;98082.63;5045748;28;20259;-70
2022/06/20 08:53:48;;;;;;;12.38;3.42;;;;;;;28.87;55.74;98087.22;5045589;28;20025;-70
2022/06/20 08:56:50;;;;;;;11.23;3.13;;;;;;;28.69;54.43;98080.06;5045840;28;20316;-70
2022/06/20 08:59:16;;;;;;;15.32;2.90;;;;;;;28.67;54.22;98085.66;5045539;28;20056;-70
2022/06/20 09:01:44;;;;;;;10.32;3.35;;;;;;;28.56;53.97;98075.06;5045528;28;20043;-70
2022/06/20 09:04:27;;;;;;;6.93;3.35;;;;;;;28.21;53.65;98064.19;5045500;28;20201;-70
2022/06/20 09:07:06;;;;;;;12.98;3.85;;;;;;;26.99;57.84;98069.91;5045355;28;20028;-70
2022/06/20 09:10:00;;;;;;;10.55;3.50;;;;;;;26.90;57.52;98065.38;5045601;28;20363;-70
2022/06/20 09:12:51;;;;;;;12.20;3.95;;;;;;;25.96;60.95;98058.88;5045294;28;20021;-70
2022/06/20 09:15:36;;;;;;;11.27;4.45;;;;;;;25.40;62.08;98071.19;5045196;28;20021;-70
2022/06/20 09:18:35;;;;;;;8.43;3.72;;;;;;;25.67;62.72;98082.19;5045160;28;20051;-70
2022/06/20 09:21:21;;;;;;;15.18;5.05;;;;;;;24.74;65.43;98078.66;5045090;28;20031;-70
2022/06/20 09:24:17;;;;;;;11.55;4.88;;;;;;;24.87;64.94;98087.41;5044916;28;20398;-70
2022/06/20 09:27:04;;;;;;;12.00;4.05;;;;;;;25.02;66.16;98094.16;5044522;28;20029;-70
2022/06/20 09:29:54;;;;;;;12.32;3.92;;;;;;;25.12;65.89;98105.84;5044950;28;20033;-70
2022/06/20 09:32:43;;;;;;;10.55;4.40;;;;;;;25.13;65.42;98094.09;5044813;28;20033;-70
2022/06/20 09:35:27;;;;;;;12.43;3.88;;;;;;;25.20;64.51;98089.91;5044831;28;20256;-70
2022/06/20 09:38:17;;;;;;;12.63;4.22;;;;;;;24.95;66.00;98087.63;5044830;28;20023;-70
2022/06/20 09:40:58;;;;;;;13.90;4.85;;;;;;;25.10;67.15;98099.78;5044784;28;20025;-70
2022/06/20 09:43:54;;;;;;;11.27;4.65;;;;;;;25.07;66.00;98097.34;5044757;28;20025;-70
2022/06/20 09:46:42;;;;;;;11.55;3.95;;;;;;;25.09;64.40;98095.34;5044118;28;20194;-70
2022/06/20 09:49:55;;;;;;;10.27;4.07;;;;;;;25.20;64.87;98087.22;5044644;28;20036;-70
2022/06/20 09:52:36;;;;;;;8.93;4.22;;;;;;;25.78;64.53;98084.81;5043686;28;20037;-70
2022/06/20 09:55:17;;;;;;;;;;;;;;;25.68;64.26;98086.59;5044860;28;20025;-70
2022/06/20 09:58:04;;;;;;;18.98;5.03;;;;;;;24.64;67.67;98071.50;5044405;28;19905;-70
2022/06/20 10:00:41;;;;;;;15.82;5.18;;;;;;;24.48;67.44;98071.91;5044398;28;20029;-70
2022/06/20 10:03:13;;;;;;;14.90;5.25;;;;;;;24.44;68.27;98073.16;5044304;28;20033;-70
2022/06/20 10:05:46;;;;;;;10.90;5.10;;;;;;;24.22;68.24;98077.75;5044353;28;20217;-70
2022/06/20 10:08:12;;;;;;;9.88;5.10;;;;;;;24.11;70.04;98083.19;5044344;28;20025;-70
2022/06/20 10:10:47;;;;;;;11.35;5.32;;;;;;;23.99;70.53;98093.13;5044306;28;20321;-70
2022/06/20 10:13:39;;;;;;;9.00;4.97;;;;;;;24.14;70.09;98102.59;5044233;28;20221;-70
2022/06/20 10:16:34;;;;;;;15.73;5.78;;;;;;;24.30;69.38;98105.72;5044440;28;20220;-70
2022/06/20 10:19:08;;;;;;;12.15;5.70;;;;;;;23.91;70.30;98118.84;5044387;28;20043;-70
2022/06/20 10:22:11;;;;;;;10.00;4.75;;;;;;;24.08;70.03;98116.53;5044111;28;20033;-70
2022/06/20 10:24:51;;;;;;;16.60;5.22;;;;;;;23.81;71.69;98134.03;5043916;28;20037;-70
2022/06/20 10:27:54;;;;;;;15.52;5.60;;;;;;;24.05;71.10;98132.94;5043941;28;20096;-70
2022/06/20 10:30:31;;;;;;;14.38;5.68;;;;;;;24.26;70.92;98133.00;5043988;28;20021;-70
2022/06/20 10:33:07;;;;;;;16.95;5.38;;;;;;;24.24;69.86;98133.16;5044235;28;20036;-70
2022/06/20 10:36:15;;;;;;;18.13;5.22;;;;;;;24.17;69.74;98140.00;5043819;28;20029;-70
2022/06/20 10:38:49;;;;;;;10.23;5.20;;;;;;;23.67;71.67;98148.59;5043416;28;20244;-70
2022/06/20 10:41:30;;;;;;;18.95;5.78;;;;;;;23.20;73.82;98149.56;5043934;28;20068;-70
2022/06/20 10:44:12;;;;;;;11.93;6.10;;;;;;;23.49;74.30;98155.41;5043921;28;20025;-70
2022/06/20 10:46:42;;;;;;;10.48;5.85;;;;;;;23.63;73.67;98154.31;5044169;28;20202;-70
2022/06/20 10:49:17;;;;;;;14.77;5.85;;;;;;;23.87;73.09;98166.66;5043800;28;20386;-70
2022/06/20 10:52:02;;;;;;;10.02;5.65;;;;;;;23.68;72.65;98169.09;5043835;28;20075;-70
2022/06/20 10:54:48;;;;;;;12.90;6.93;;;;;;;23.43;72.89;98166.63;5043712;28;20033;-70
2022/06/20 10:57:30;;;;;;;14.65;7.82;;;;;;;23.44;73.75;98160.28;5045687;28;20036;-70
2022/06/20 11:00:09;;;;;;;12.13;7.50;;;;;;;23.74;71.90;98155.16;5047817;28;20075;-70
2022/06/20 11:02:56;;;;;;;14.65;8.07;;;;;;;24.28;71.45;98160.63;5048003;28;20246;-70
2022/06/20 11:05:45;;;;;;;17.10;7.25;;;;;;;25.55;67.93;98156.03;5047640;28;20021;-70
2022/06/20 11:08:42;;;;;;;12.35;6.18;;;;;;;25.69;65.01;98153.00;5046846;28;20225;-70
2022/06/20 11:11:28;;;;;;;13.20;6.43;;;;;;;25.10;65.41;98150.94;5047537;28;20029;-70
2022/06/20 11:14:16;;;;;;;11.75;5.90;;;;;;;25.13;65.26;98150.66;5047430;28;20025;-70
2022/06/20 11:17:08;;;;;;;8.40;5.63;;;;;;;24.98;66.07;98149.28;5047579;28;20245;-70
2022/06/20 11:19:58;;;;;;;11.65;5.75;;;;;;;25.67;64.18;98160.38;5047166;28;20104;-70
2022/06/20 11:22:41;;;;;;;6.22;4.60;;;;;;;26.01;63.30;98167.22;5047148;28;20072;-70
2022/06/20 11:25:09;;;;;;;7.93;4.63;;;;;;;26.23;62.10;98175.13;5047558;28;20018;-70
2022/06/20 11:27:56;;;;;;;10.70;4.47;;;;;;;26.59;59.61;98177.19;5047205;28;20030;-70
2022/06/20 11:30:48;;;;;;;8.43;4.15;;;;;;;26.80;61.35;98180.66;5047169;28;20112;-70
2022/06/20 11:36:16;;;;;;;7.65;3.58;;;;;;;27.14;60.92;98180.09;5047103;28;20091;-70
2022/06/20 11:39:01;;;;;;;8.45;3.80;;;;;;;27.29;60.76;98194.03;5047087;28;20344;-70
2022/06/20 11:41:37;;;;;;;12.77;3.88;;;;;;;26.74;60.73;98184.75;5047051;28;20051;-70
2022/06/20 11:44:20;;;;;;;8.48;3.78;;;;;;;25.86;62.79;98188.28;5047231;28;20029;-70
2022/06/20 11:46:48;;;;;;;5.63;3.30;;;;;;;25.65;64.29;98198.25;5046970;28;20093;-70
2022/06/20 11:49:31;;;;;;;8.63;3.45;;;;;;;25.95;64.35;98189.31;5046793;28;20025;-70
2022/06/20 11:52:23;;;;;;;9.73;3.47;;;;;;;26.13;63.95;98190.44;5046801;28;20021;-70
2022/06/20 11:55:26;;;;;;;6.65;3.67;;;;;;;25.67;63.37;98188.19;5046695;28;20025;-70
2022/06/20 11:58:10;;;;;;;10.20;4.10;;;;;;;25.00;64.46;98187.69;5046708;28;20052;-70
2022/06/20 12:01:04;;;;;;;12.77;3.80;;;;;;;24.98;66.52;98186.13;5046646;28;20029;-70
2022/06/20 12:03:56;;;;;;;8.55;3.60;;;;;;;25.26;65.09;98199.81;5046345;28;20337;-70
2022/06/20 12:06:44;;;;;;;6.32;3.30;;;;;;;25.31;65.13;98196.75;5046528;28;20024;-70
2022/06/20 12:09:46;;;;;;;7.38;3.80;;;;;;;25.15;64.62;98196.31;5045633;28;20308;-70
2022/06/20 12:12:35;;;;;;;6.90;3.17;;;;;;;25.24;66.08;98196.41;5046419;28;20028;-70
2022/06/20 12:15:30;;;;;;;7.78;3.42;;;;;;;25.24;65.35;98204.47;5046315;28;20028;-70
2022/06/20 12:18:20;;;;;;;6.82;3.47;;;;;;;25.41;63.45;98207.59;5046328;28;20021;-70
2022/06/20 12:23:56;;;;;;;5.25;2.85;;;;;;;24.92;65.09;98217.13;5046088;28;20360;-70
2022/06/20 12:26:29;;;;;;;12.45;3.13;;;;;;;25.34;64.23;98223.41;5046160;28;20065;-70
2022/06/20 12:28:56;;;;;;;5.03;2.88;;;;;;;25.29;63.92;98221.13;5046102;28;20119;-70
2022/06/20 12:31:28;;;;;;;5.82;2.72;;;;;;;25.24;62.39;98219.78;5046177;28;20084;-70
2022/06/20 12:33:59;;;;;;;6.55;3.47;;;;;;;24.93;64.15;98209.91;5045923;28;20034;-70
2022/06/20 12:36:36;;;;;;;9.30;3.70;;;;;;;25.15;63.61;98213.34;5046014;28;20092;-70